Lexington, KY

3:52 AM EDT on September 16, 2014 (GMT -0400)
Plainview | Change Station
CLOSE
Current Station
Personal Weather Station
Location: Lexington, KY
Elevation: 1001 ft
Nearby Weather Stations

Elev 1001 ft 38.00 °N, 84.46 °W | Updated 8 minutes ago

Overcast
Overcast
63.5 °F
Feels Like 63.5 °F
N
0.0
Wind Variable Wind from West

Today
High -- | Low -- °F
--% Chance of Precip.
Yesterday
High -- | Low -- °F
Precip. -- in
7:20 AM 7:44 PM
Waning Gibbous, 48% visible
Pressure 30.09 in
Visibility 9.0 miles
Clouds Overcast 2900 ft
Dew Point 62 °F
Humidity 96%
Rainfall 0.09 in
Snow Depth Not available.
UV 0 out of 12
Pollen 7.00 out of 12
Air Quality Not available.
Flu Activity Not available.
SPECI KLEX 160723Z 25004KT 9SM -RA OVC029 18/16 A3009 RMK AO2 RAB21 P0000 T01830161

More Conditions Fewer Conditions

Pressure 30.09 in
Visibility 9.0 miles
Clouds Overcast 2900 ft
Dew Point 62 °F
Humidity 96%
Rainfall 0.09 in
Snow Depth Not available.
UV 0 out of 12
Pollen 7.00 out of 12
Air Quality Not available.
Flu Activity Not available.
SPECI KLEX 160723Z 25004KT 9SM -RA OVC029 18/16 A3009 RMK AO2 RAB21 P0000 T01830161

More Conditions Fewer Conditions

10-Day Weather Forecast

Almanac

Astronomy

Sep. 16, 2014 Rise Set
Actual Time 7:20 AM EDT 7:44 PM EDT
Civil Twilight 6:54 AM EDT 8:10 PM EDT
Nautical Twilight 6:23 AM EDT 8:41 PM EDT
Astronomical Twilight 5:51 AM EDT 9:13 PM EDT
Moon 12:33 AM EDT 3:03 PM EDT
Length of Visible Light 13h 16m
Length of Day
12h 23m
Tomorrow will be 2m 25s shorter.
Waning Gibbous, 48% of the Moon is Illuminated
Today
Waning Gibbous
Sep 24
New
Oct 1
First Quarter
Oct 8
Full
Oct 15
Last Quarter

Today's Extremes

State Highs State Lows

Community

WunderPhotos

Upload Photos

1,753,712 photos uploaded!

Nearby

Air Quality

  Air Quality AQ Index Pollutant
Yesterday Good
OZONE
Yesterday Good
PM2.5
Tuesday Good
OZONE

Snow Depth

Station Depth Elevation
No new snow has been reported.

Earthquake Activity

City Distance Mag. Time & Date
No recent earthquake activity has been reported nearby.
Minimum magnitude displayed is 2.5.

Coastal Water Temperatures

Place Temperature
No Stations Reporting

Nearby Weather Stations